Time;durP1;ratioP1;P1;durP2;ratioP2;P2;SDS_P1;SDS_P2;PMS_P1;PMS_P2;Temp;Humidity;BMP_temperature;BMP_pressure;BME280_temperature;BME280_humidity;BME280_pressure;Samples;Min_cycle;Max_cycle;Signal;HPM_P1;HPM_P2
2023/11/08 00:00:23;;;;;;;3.70;3.50;;;;;;;12.19;nan;99875.81;5035593;27;97431;-79
2023/11/08 00:02:49;;;;;;;3.20;3.10;;;;;;;12.33;nan;99880.41;5024210;28;96813;-79
2023/11/08 00:05:17;;;;;;;3.22;3.03;;;;;;;12.12;nan;99837.56;5018353;27;96813;-79
2023/11/08 00:07:43;;;;;;;3.22;3.03;;;;;;;12.30;nan;99870.03;5033462;27;101417;-79
2023/11/08 00:10:12;;;;;;;3.15;3.05;;;;;;;12.39;nan;99882.75;5045018;27;97880;-79
2023/11/08 00:12:38;;;;;;;3.42;3.22;;;;;;;12.29;nan;99877.06;5029454;28;97210;-79
2023/11/08 00:15:07;;;;;;;3.95;3.75;;;;;;;12.33;nan;99873.34;5033155;27;97015;-79
2023/11/08 00:17:33;;;;;;;3.70;3.50;;;;;;;12.14;nan;99873.41;5029474;27;100637;-82
2023/11/08 00:19:58;;;;;;;3.83;3.63;;;;;;;12.26;nan;99881.63;5042415;27;97520;-79
2023/11/08 00:22:24;;;;;;;3.17;2.97;;;;;;;12.10;nan;99863.97;5033802;27;96839;-79
2023/11/08 00:24:49;;;;;;;4.15;3.85;;;;;;;12.21;nan;99884.47;5030418;28;96680;-79
2023/11/08 00:27:15;;;;;;;2.80;2.70;;;;;;;12.23;nan;99886.13;5035541;27;101574;-79
2023/11/08 00:29:41;;;;;;;2.70;2.60;;;;;;;12.19;nan;99886.34;5010360;27;101416;-79
2023/11/08 00:32:06;;;;;;;3.35;3.15;;;;;;;12.18;nan;99885.47;5019679;27;97101;-79
2023/11/08 00:34:32;;;;;;;4.45;4.15;;;;;;;12.28;nan;99880.66;5035161;27;96974;-78
2023/11/08 00:36:57;;;;;;;2.20;2.10;;;;;;;12.39;nan;99883.63;5045811;27;97958;-79
2023/11/08 00:39:23;;;;;;;2.00;1.90;;;;;;;12.42;nan;99883.47;5047257;27;98783;-80
2023/11/08 00:41:48;;;;;;;2.05;1.95;;;;;;;12.44;nan;99878.09;5045582;27;97334;-80
2023/11/08 00:44:14;;;;;;;2.13;2.03;;;;;;;12.46;nan;99877.13;5037331;27;96920;-79
2023/11/08 00:46:40;;;;;;;2.00;1.90;;;;;;;12.41;nan;99878.25;5045089;27;97918;-79
2023/11/08 00:49:06;;;;;;;3.25;2.95;;;;;;;12.36;nan;99880.25;5028750;28;100960;-79
2023/11/08 00:51:32;;;;;;;1.90;1.80;;;;;;;12.38;nan;99879.25;5045265;27;96884;-79
2023/11/08 00:54:00;;;;;;;2.83;2.72;;;;;;;12.37;nan;99882.84;5030209;28;97182;-79
2023/11/08 00:56:26;;;;;;;1.90;1.80;;;;;;;12.38;nan;99875.78;5034783;27;97943;-79
2023/11/08 00:58:52;;;;;;;2.10;2.00;;;;;;;12.40;nan;99890.56;5032516;28;101206;-78
2023/11/08 01:01:17;;;;;;;2.10;2.00;;;;;;;12.33;nan;99869.88;4999666;28;96787;-79
2023/11/08 01:03:43;;;;;;;2.10;2.00;;;;;;;12.45;nan;99885.94;5018842;27;97246;-78
2023/11/08 01:06:08;;;;;;;1.80;1.70;;;;;;;12.29;nan;99869.19;5020919;27;101587;-80
2023/11/08 01:08:34;;;;;;;1.95;1.85;;;;;;;12.39;nan;99878.34;5036398;27;98010;-78
2023/11/08 01:10:59;;;;;;;2.25;2.15;;;;;;;12.39;nan;99873.09;5031603;27;96879;-79
2023/11/08 01:13:25;;;;;;;1.67;1.60;;;;;;;12.42;nan;99875.56;5036518;27;96883;-79
2023/11/08 01:15:50;;;;;;;2.10;2.00;;;;;;;12.43;nan;99879.06;5034219;27;101039;-79
2023/11/08 01:18:16;;;;;;;2.45;2.35;;;;;;;12.28;nan;99848.22;5020878;27;101593;-79
2023/11/08 01:20:42;;;;;;;1.50;1.50;;;;;;;12.37;nan;99874.09;5035714;27;96817;-79
2023/11/08 01:23:09;;;;;;;1.92;1.80;;;;;;;12.26;nan;99842.16;5031653;27;97274;-79
2023/11/08 01:25:35;;;;;;;1.95;1.85;;;;;;;12.46;nan;99879.75;5039488;27;98029;-79
2023/11/08 01:28:01;;;;;;;2.00;1.90;;;;;;;12.41;nan;99876.47;5030825;27;101331;-79
2023/11/08 01:30:26;;;;;;;2.00;1.90;;;;;;;12.32;nan;99855.88;5013534;27;96738;-79
2023/11/08 01:32:52;;;;;;;1.73;1.63;;;;;;;12.46;nan;99866.59;5033529;27;96879;-79
2023/11/08 01:35:20;;;;;;;2.15;2.05;;;;;;;12.33;nan;99843.56;5024848;27;100924;-79
2023/11/08 01:37:46;;;;;;;1.85;1.75;;;;;;;12.55;nan;99878.44;5040866;27;99681;-79
2023/11/08 01:40:12;;;;;;;3.45;2.35;;;;;;;12.52;nan;99872.47;5041695;27;96808;-79
2023/11/08 01:42:37;;;;;;;1.73;1.63;;;;;;;12.53;nan;99877.66;5015534;27;96980;-79
2023/11/08 01:45:04;;;;;;;2.38;2.28;;;;;;;12.41;nan;99854.56;5048695;27;97465;-80
2023/11/08 01:47:33;;;;;;;1.80;1.70;;;;;;;12.52;nan;99883.00;5054695;27;99393;-79
2023/11/08 01:49:59;;;;;;;2.03;1.92;;;;;;;12.44;nan;99870.22;5024640;27;96870;-79
2023/11/08 01:52:25;;;;;;;3.15;2.85;;;;;;;12.49;nan;99881.38;5073655;27;96957;-80
2023/11/08 01:54:51;;;;;;;1.52;1.52;;;;;;;12.51;nan;99883.91;5041607;27;99652;-79
2023/11/08 01:57:17;;;;;;;2.67;2.58;;;;;;;12.55;nan;99885.50;5035870;27;97807;-79
2023/11/08 01:59:43;;;;;;;1.75;1.65;;;;;;;12.51;nan;99876.91;5035694;27;97129;-80
2023/11/08 02:02:09;;;;;;;1.83;1.73;;;;;;;12.43;nan;99864.09;5017092;27;99233;-80
2023/11/08 02:04:35;;;;;;;1.65;1.60;;;;;;;12.57;nan;99878.38;5046924;27;101563;-79
2023/11/08 02:07:01;;;;;;;2.63;2.53;;;;;;;12.52;nan;99878.59;5017487;27;101077;-79
2023/11/08 02:09:28;;;;;;;1.75;1.65;;;;;;;12.56;nan;99871.41;5032462;27;97151;-79
2023/11/08 02:11:54;;;;;;;1.90;1.80;;;;;;;12.56;nan;99881.91;5043376;27;97136;-79
2023/11/08 02:14:19;;;;;;;2.20;2.10;;;;;;;12.52;nan;99869.84;5022821;27;100624;-79
2023/11/08 02:16:45;;;;;;;2.10;2.00;;;;;;;12.48;nan;99868.28;5048484;27;101039;-79
2023/11/08 02:19:11;;;;;;;1.80;1.70;;;;;;;12.63;nan;99892.09;5035781;27;96799;-79
2023/11/08 02:21:37;;;;;;;1.88;1.77;;;;;;;12.55;nan;99880.22;5018153;27;96817;-79
2023/11/08 02:24:28;;;;;;;1.50;1.50;;;;;;;12.64;nan;99887.66;5021321;27;101845;-79
2023/11/08 02:26:54;;;;;;;2.00;1.90;;;;;;;12.56;nan;99874.88;5041489;27;98692;-80
2023/11/08 02:29:19;;;;;;;1.50;1.50;;;;;;;12.59;nan;99881.78;5034683;27;96917;-79
2023/11/08 02:31:50;;;;;;;1.50;1.50;;;;;;;12.56;nan;99884.56;5025561;27;96966;-79
2023/11/08 02:34:19;;;;;;;1.77;1.67;;;;;;;12.58;nan;99893.25;5018421;27;101567;-79
2023/11/08 02:36:44;;;;;;;1.77;1.67;;;;;;;12.59;nan;99887.88;5052800;27;97917;-80
2023/11/08 02:39:11;;;;;;;1.90;1.80;;;;;;;12.28;nan;99845.59;5009675;27;96705;-79
2023/11/08 02:41:37;;;;;;;1.80;1.70;;;;;;;12.57;nan;99895.03;5039271;27;96804;-79
2023/11/08 02:44:03;;;;;;;1.30;1.30;;;;;;;12.57;nan;99889.75;5031426;27;101571;-79
2023/11/08 02:46:30;;;;;;;1.45;1.45;;;;;;;12.62;nan;99898.28;5034529;27;101367;-81
2023/11/08 02:48:57;;;;;;;2.13;2.03;;;;;;;12.43;nan;99868.53;5051962;27;96793;-79
2023/11/08 02:51:29;;;;;;;1.50;1.50;;;;;;;12.65;nan;99900.78;5039205;27;97284;-79
2023/11/08 02:53:56;;;;;;;1.20;1.20;;;;;;;12.58;nan;99880.91;5038555;27;97941;-79
2023/11/08 02:56:24;;;;;;;1.50;1.50;;;;;;;12.53;nan;99903.13;5041742;27;101520;-79
2023/11/08 02:58:51;;;;;;;1.38;1.38;;;;;;;12.30;nan;99857.72;5049608;27;96980;-79
2023/11/08 03:01:17;;;;;;;1.90;1.80;;;;;;;12.52;nan;99890.91;5050948;27;96853;-80
2023/11/08 03:03:42;;;;;;;2.03;1.92;;;;;;;12.36;nan;99888.16;5051031;27;98493;-79
2023/11/08 03:06:08;;;;;;;1.77;1.67;;;;;;;12.27;nan;99867.53;5033744;27;101122;-80
2023/11/08 03:08:34;;;;;;;1.90;1.80;;;;;;;12.39;nan;99902.03;5023580;27;97347;-79
2023/11/08 03:11:00;;;;;;;2.20;2.10;;;;;;;12.13;nan;99886.63;5023830;27;96839;-80
2023/11/08 03:13:25;;;;;;;2.78;2.67;;;;;;;12.25;nan;99909.75;5062052;27;97452;-79
2023/11/08 03:15:51;;;;;;;2.10;2.00;;;;;;;12.24;nan;99924.66;5033683;27;100905;-79
2023/11/08 03:18:18;;;;;;;3.25;3.05;;;;;;;12.23;nan;99930.84;5036814;27;96696;-81
2023/11/08 03:20:43;;;;;;;1.92;1.83;;;;;;;12.24;nan;99924.66;5044845;27;96794;-79
2023/11/08 03:23:09;;;;;;;3.45;3.25;;;;;;;12.28;nan;99922.75;5029285;27;98006;-79
2023/11/08 03:25:34;;;;;;;2.92;2.72;;;;;;;12.03;nan;99930.09;5010627;27;101452;-79
2023/11/08 03:28:00;;;;;;;2.65;2.55;;;;;;;11.83;nan;99929.16;5050894;27;97073;-79
2023/11/08 03:30:25;;;;;;;1.60;1.60;;;;;;;11.72;nan;99928.78;5024415;27;97618;-79
2023/11/08 03:32:55;;;;;;;1.30;1.30;;;;;;;11.77;nan;99929.44;5025917;27;97351;-79
2023/11/08 03:35:20;;;;;;;1.90;1.80;;;;;;;11.81;nan;99933.66;5033815;27;101814;-79
2023/11/08 03:37:46;;;;;;;2.00;1.90;;;;;;;11.86;nan;99926.44;5036454;27;96791;-79
2023/11/08 03:40:12;;;;;;;1.83;1.73;;;;;;;11.96;nan;99926.88;5037847;27;96704;-79
2023/11/08 03:42:39;;;;;;;1.50;1.50;;;;;;;11.79;nan;99910.06;5032414;27;102027;-79
2023/11/08 03:45:05;;;;;;;2.53;2.42;;;;;;;11.91;nan;99926.22;5037923;27;101040;-79
2023/11/08 03:47:31;;;;;;;2.00;1.90;;;;;;;11.87;nan;99928.16;5022753;27;96755;-79
2023/11/08 03:49:57;;;;;;;2.35;2.25;;;;;;;11.73;nan;99917.38;5038895;27;96862;-79
2023/11/08 03:52:26;;;;;;;2.22;2.13;;;;;;;11.85;nan;99929.13;5019655;27;101208;-79
2023/11/08 03:54:55;;;;;;;2.40;2.30;;;;;;;11.72;nan;99900.75;5044084;27;97999;-79
2023/11/08 03:57:20;;;;;;;3.55;3.35;;;;;;;11.92;nan;99935.81;5040431;27;96834;-79
2023/11/08 03:59:49;;;;;;;3.53;3.33;;;;;;;11.98;nan;99939.03;5023709;27;96985;-80
2023/11/08 04:02:17;;;;;;;2.40;2.30;;;;;;;12.04;nan;99940.50;5044378;27;97495;-82
2023/11/08 04:04:44;;;;;;;2.90;2.80;;;;;;;11.95;nan;99926.00;5019445;27;101114;-80
2023/11/08 04:07:09;;;;;;;4.32;4.10;;;;;;;12.04;nan;99937.03;5036650;27;96906;-79
2023/11/08 04:09:35;;;;;;;3.67;3.47;;;;;;;12.02;nan;99931.88;5053798;27;97193;-81
2023/11/08 04:12:00;;;;;;;4.28;4.07;;;;;;;12.03;nan;99930.09;5029284;27;101372;-80
2023/11/08 04:14:26;;;;;;;3.53;3.33;;;;;;;11.97;nan;99928.59;5042474;27;97633;-79
2023/11/08 04:16:54;;;;;;;2.70;2.60;;;;;;;11.91;nan;99924.44;5037066;27;96821;-80
2023/11/08 04:19:19;;;;;;;2.80;2.70;;;;;;;11.94;nan;99926.09;5029021;27;96799;-79
2023/11/08 04:21:45;;;;;;;2.30;2.20;;;;;;;11.96;nan;99932.16;5031502;27;101001;-82
2023/11/08 04:24:11;;;;;;;2.47;2.38;;;;;;;11.73;nan;99897.19;5008746;27;100998;-80
2023/11/08 04:26:36;;;;;;;2.40;2.30;;;;;;;11.67;nan;99902.72;5023570;27;96816;-80
2023/11/08 04:29:02;;;;;;;10.20;2.80;;;;;;;11.89;nan;99938.59;5031922;27;96868;-79
2023/11/08 04:31:27;;;;;;;2.00;1.90;;;;;;;11.88;nan;99942.16;5035192;27;100841;-80
2023/11/08 04:33:53;;;;;;;1.90;1.80;;;;;;;11.74;nan;99921.69;5022271;27;101374;-81
2023/11/08 04:36:18;;;;;;;2.00;1.90;;;;;;;11.82;nan;99945.03;5055505;27;97081;-82
2023/11/08 04:38:45;;;;;;;2.10;2.00;;;;;;;11.81;nan;99948.56;5043480;27;96756;-81
2023/11/08 04:41:14;;;;;;;3.67;3.42;;;;;;;11.79;nan;99951.28;5037419;27;98069;-80
2023/11/08 04:43:42;;;;;;;3.42;3.22;;;;;;;11.75;nan;99932.16;5019511;27;97916;-80
2023/11/08 04:46:08;;;;;;;2.13;2.03;;;;;;;11.85;nan;99937.88;5019715;27;97840;-81
2023/11/08 04:48:33;;;;;;;3.60;3.40;;;;;;;11.72;nan;99923.53;5013068;27;97246;-79
2023/11/08 04:50:59;;;;;;;3.30;3.10;;;;;;;11.79;nan;99949.50;5035642;27;98255;-79
2023/11/08 04:53:25;;;;;;;2.70;2.60;;;;;;;11.55;nan;99905.91;5045175;27;100994;-79
2023/11/08 04:55:50;;;;;;;3.75;3.45;;;;;;;11.79;nan;99948.66;5041773;27;97281;-79
2023/11/08 04:58:16;;;;;;;3.00;2.90;;;;;;;11.76;nan;99951.41;5035950;27;96913;-82
2023/11/08 05:00:41;;;;;;;2.97;2.88;;;;;;;11.62;nan;99944.13;5031854;27;101790;-82
2023/11/08 05:03:07;;;;;;;3.33;3.15;;;;;;;11.66;nan;99950.97;5040919;27;97572;-82
2023/11/08 05:05:33;;;;;;;3.60;3.40;;;;;;;11.55;nan;99945.34;5030100;27;97027;-82
2023/11/08 05:07:58;;;;;;;3.20;3.10;;;;;;;11.55;nan;99943.56;5004162;27;97346;-87
2023/11/08 05:10:24;;;;;;;3.60;3.40;;;;;;;11.55;nan;99959.34;5007762;27;100117;-83
2023/11/08 05:12:49;;;;;;;3.47;3.28;;;;;;;11.63;nan;99945.84;5053726;27;97310;-82
2023/11/08 05:15:15;;;;;;;3.10;3.00;;;;;;;11.65;nan;99957.16;5051697;27;97155;-82
2023/11/08 05:17:43;;;;;;;3.10;3.00;;;;;;;11.65;nan;99959.78;5039978;27;97717;-82
2023/11/08 05:20:10;;;;;;;4.47;4.18;;;;;;;11.66;nan;99960.63;5051703;27;97532;-82
2023/11/08 05:22:35;;;;;;;1.48;1.48;;;;;;;11.22;nan;99900.34;5033640;27;98553;-82
2023/11/08 05:25:01;;;;;;;1.80;1.70;;;;;;;11.44;nan;99937.06;5042700;27;96855;-81
2023/11/08 05:27:27;;;;;;;3.00;2.90;;;;;;;11.26;nan;99904.56;5057986;27;98388;-81
2023/11/08 05:29:53;;;;;;;2.90;2.80;;;;;;;11.61;nan;99966.09;5033763;27;97479;-82
2023/11/08 05:32:21;;;;;;;3.10;3.00;;;;;;;11.35;nan;99933.06;5051983;27;97375;-80
2023/11/08 05:34:48;;;;;;;2.40;2.30;;;;;;;11.16;nan;99911.13;5051856;27;96990;-82
2023/11/08 05:37:14;;;;;;;3.03;2.92;;;;;;;11.52;nan;99970.00;5033183;27;97243;-79
2023/11/08 05:39:40;;;;;;;2.47;2.38;;;;;;;11.50;nan;99966.56;5034870;27;97658;-82
2023/11/08 05:42:07;;;;;;;2.70;2.60;;;;;;;11.56;nan;99979.44;5031241;27;98227;-80
2023/11/08 05:44:32;;;;;;;2.70;2.60;;;;;;;11.36;nan;99947.91;5031866;27;96872;-83
2023/11/08 05:46:58;;;;;;;2.78;2.67;;;;;;;11.49;nan;99967.50;5010961;27;97337;-82
2023/11/08 05:49:24;;;;;;;2.67;2.58;;;;;;;11.50;nan;99976.22;5033810;27;97339;-82
2023/11/08 05:51:49;;;;;;;2.60;2.50;;;;;;;11.26;nan;99942.19;5031985;27;97875;-82
2023/11/08 05:54:15;;;;;;;2.25;2.15;;;;;;;11.35;nan;99959.34;5033036;27;96782;-82
2023/11/08 05:56:41;;;;;;;2.20;2.10;;;;;;;11.21;nan;99941.53;5034500;27;96980;-86
2023/11/08 05:59:07;;;;;;;2.42;2.33;;;;;;;11.29;nan;99949.94;5016956;27;98026;-83
2023/11/08 06:01:32;;;;;;;3.13;3.00;;;;;;;11.23;nan;99939.72;5034527;27;97575;-88
2023/11/08 06:03:59;;;;;;;3.20;3.10;;;;;;;11.21;nan;99948.56;5052589;27;97146;-84
2023/11/08 06:06:25;;;;;;;3.00;2.90;;;;;;;11.42;nan;99980.94;5051163;27;96760;-85
2023/11/08 06:08:50;;;;;;;2.10;2.00;;;;;;;11.46;nan;99982.53;5032728;27;97459;-81
2023/11/08 06:11:16;;;;;;;2.30;2.20;;;;;;;11.19;nan;99974.03;5036654;27;101019;-78
2023/11/08 06:13:43;;;;;;;2.30;2.20;;;;;;;11.41;nan;100003.75;5057141;27;97134;-80
2023/11/08 06:16:09;;;;;;;2.30;2.20;;;;;;;11.34;nan;99989.16;5040098;27;97099;-78
2023/11/08 06:18:35;;;;;;;3.03;2.88;;;;;;;11.36;nan;99983.84;5043674;27;98048;-79
2023/11/08 06:21:00;;;;;;;3.35;3.15;;;;;;;11.38;nan;99982.03;5051678;27;97766;-80
2023/11/08 06:23:26;;;;;;;3.83;3.47;;;;;;;11.29;nan;99959.63;5039241;27;97184;-79
2023/11/08 06:25:51;;;;;;;2.10;2.00;;;;;;;11.56;nan;99991.72;5054596;27;96740;-80
2023/11/08 06:28:17;;;;;;;3.72;3.50;;;;;;;11.49;nan;100000.78;5057210;27;97936;-80
2023/11/08 06:30:42;;;;;;;2.38;2.28;;;;;;;11.50;nan;99992.00;5021670;27;100809;-79
2023/11/08 06:33:08;;;;;;;2.50;2.40;;;;;;;11.58;nan;99989.91;5065423;27;97322;-79
2023/11/08 06:35:35;;;;;;;2.50;2.40;;;;;;;11.59;nan;100001.25;5038246;27;96998;-79
2023/11/08 06:38:01;;;;;;;2.65;2.55;;;;;;;11.42;nan;100000.19;5045085;27;97711;-79
2023/11/08 06:40:26;;;;;;;3.20;3.10;;;;;;;11.25;nan;99958.88;5038937;27;97381;-79
2023/11/08 06:42:52;;;;;;;2.53;2.42;;;;;;;11.46;nan;100001.78;5035964;27;96938;-80
2023/11/08 06:45:17;;;;;;;2.20;2.10;;;;;;;11.18;nan;99972.34;5057048;27;97339;-79
2023/11/08 06:47:43;;;;;;;3.40;3.20;;;;;;;11.47;nan;100008.75;5046963;27;98231;-78
2023/11/08 06:50:12;;;;;;;2.65;2.55;;;;;;;11.38;nan;100010.94;5066524;27;97519;-79
2023/11/08 06:52:38;;;;;;;2.60;2.50;;;;;;;11.32;nan;99996.28;5052782;27;96787;-86
2023/11/08 06:55:07;;;;;;;1.30;1.30;;;;;;;11.41;nan;100023.94;5056060;27;97354;-81
2023/11/08 06:57:32;;;;;;;1.20;1.20;;;;;;;11.45;nan;100021.09;5048977;27;97600;-77
2023/11/08 06:59:59;;;;;;;2.22;2.13;;;;;;;11.52;nan;100025.19;5036337;27;97821;-77
2023/11/08 07:02:24;;;;;;;2.00;1.90;;;;;;;11.56;nan;100031.16;5029984;27;96826;-81
2023/11/08 07:04:50;;;;;;;2.25;2.15;;;;;;;11.50;nan;100008.63;5044085;27;96911;-77
2023/11/08 07:07:16;;;;;;;2.30;2.20;;;;;;;11.83;nan;100033.53;5031884;27;101764;-76
2023/11/08 07:09:41;;;;;;;2.20;2.10;;;;;;;11.99;nan;100045.13;5041259;27;101475;-76
2023/11/08 07:12:08;;;;;;;2.78;2.67;;;;;;;12.07;nan;100032.47;5014159;27;97596;-76
2023/11/08 07:14:34;;;;;;;2.65;2.55;;;;;;;11.72;nan;100018.19;5027407;27;97644;-76
2023/11/08 07:17:00;;;;;;;3.10;2.97;;;;;;;11.73;nan;100030.44;5040607;27;97754;-76
2023/11/08 07:19:27;;;;;;;2.60;2.50;;;;;;;11.74;nan;100005.84;5036703;27;97757;-76
2023/11/08 07:21:53;;;;;;;2.90;2.80;;;;;;;12.12;nan;100038.38;5053859;27;97473;-76
2023/11/08 07:24:19;;;;;;;2.80;2.70;;;;;;;12.22;nan;100008.09;5056384;27;96814;-79
2023/11/08 07:26:46;;;;;;;3.65;3.35;;;;;;;12.82;nan;100030.75;5052647;27;98925;-77
2023/11/08 07:29:12;;;;;;;3.10;3.00;;;;;;;12.44;nan;100004.47;5028657;27;102089;-76
2023/11/08 07:31:37;;;;;;;3.20;3.10;;;;;;;12.77;nan;100033.63;5054816;27;96715;-79
2023/11/08 07:34:05;;;;;;;4.60;4.25;;;;;;;12.89;nan;100046.22;5034928;27;98005;-78
2023/11/08 07:36:31;;;;;;;3.40;3.20;;;;;;;12.91;nan;100027.69;5035760;27;97606;-77
2023/11/08 07:38:57;;;;;;;3.10;3.00;;;;;;;12.74;nan;100046.06;5032382;27;99204;-77
2023/11/08 07:41:23;;;;;;;3.15;3.00;;;;;;;12.61;nan;100032.66;5059564;27;96817;-80
2023/11/08 07:43:49;;;;;;;3.63;3.42;;;;;;;12.52;nan;100038.34;5023457;27;96938;-77
2023/11/08 07:46:14;;;;;;;3.60;3.40;;;;;;;12.56;nan;100021.47;5036791;27;99839;-77
2023/11/08 07:48:40;;;;;;;5.30;4.90;;;;;;;12.56;nan;100045.16;5034811;27;97438;-77
2023/11/08 07:51:08;;;;;;;4.30;4.10;;;;;;;12.59;nan;100011.63;5023793;27;96891;-80
2023/11/08 07:53:34;;;;;;;4.60;4.40;;;;;;;12.78;nan;100042.38;5023321;27;96963;-76
2023/11/08 07:56:00;;;;;;;3.70;3.50;;;;;;;12.65;nan;100008.75;5053870;27;97690;-80
2023/11/08 07:58:26;;;;;;;4.10;3.90;;;;;;;12.94;nan;100035.44;5020722;27;98781;-88
2023/11/08 08:00:52;;;;;;;4.30;4.10;;;;;;;13.00;nan;100045.72;5010437;27;96747;-88
2023/11/08 08:03:17;;;;;;;4.25;4.05;;;;;;;12.68;nan;100037.56;5036419;27;97074;-85
2023/11/08 08:05:46;;;;;;;4.00;3.80;;;;;;;12.82;nan;100055.31;5036404;27;98360;-86
2023/11/08 08:08:13;;;;;;;4.20;4.00;;;;;;;14.08;nan;99983.09;5015709;27;101146;-83
2023/11/08 08:10:40;;;;;;;3.90;3.70;;;;;;;15.79;nan;100038.56;5001299;27;97289;-84
2023/11/08 08:13:06;;;;;;;3.40;3.20;;;;;;;16.25;nan;100050.81;5021435;27;96885;-87
2023/11/08 08:15:31;;;;;;;3.47;3.28;;;;;;;16.63;nan;100013.13;5034662;27;101045;-87
2023/11/08 08:18:00;;;;;;;3.50;3.30;;;;;;;17.01;nan;100045.13;5040786;27;101025;-86
2023/11/08 08:20:25;;;;;;;4.10;3.90;;;;;;;17.57;nan;100048.50;5056512;27;96745;-87
2023/11/08 08:22:52;;;;;;;3.50;3.30;;;;;;;16.00;nan;100044.38;5032910;27;96790;-87
2023/11/08 08:25:18;;;;;;;4.20;4.00;;;;;;;15.35;nan;100057.88;5034155;27;98124;-85
2023/11/08 08:27:44;;;;;;;3.70;3.50;;;;;;;14.98;nan;100063.56;5014181;27;99006;-86
2023/11/08 08:30:14;;;;;;;3.00;2.90;;;;;;;14.99;nan;100065.31;5043196;27;96776;-88
2023/11/08 08:32:41;;;;;;;3.58;3.38;;;;;;;14.48;nan;100031.91;5054311;27;97027;-83
2023/11/08 08:35:08;;;;;;;4.20;4.00;;;;;;;13.99;nan;100007.31;5052905;27;98212;-87
2023/11/08 08:37:33;;;;;;;4.30;4.10;;;;;;;14.40;nan;100062.34;5033647;27;98438;-87
2023/11/08 08:39:59;;;;;;;4.38;4.18;;;;;;;14.07;nan;100075.53;5033779;27;96882;-85
2023/11/08 08:42:25;;;;;;;3.92;3.72;;;;;;;13.91;nan;100036.75;5022771;27;96852;-84
2023/11/08 08:44:51;;;;;;;4.70;4.50;;;;;;;13.76;nan;100027.00;5046069;27;100446;-85
2023/11/08 08:47:16;;;;;;;4.28;4.07;;;;;;;13.42;nan;100023.44;5038922;27;100954;-86
2023/11/08 08:49:42;;;;;;;4.40;4.20;;;;;;;13.35;nan;100053.66;5035023;27;96795;-88
2023/11/08 08:52:08;;;;;;;4.05;3.85;;;;;;;13.24;nan;100033.09;5034257;27;97727;-89
2023/11/08 08:54:33;;;;;;;8.90;5.90;;;;;;;13.34;nan;100068.63;5037486;27;97955;-86
2023/11/08 08:57:00;;;;;;;3.83;3.63;;;;;;;13.49;nan;100068.81;5071918;27;97824;-87
2023/11/08 08:59:27;;;;;;;3.75;3.55;;;;;;;13.32;nan;100062.63;5059410;27;97159;-89
2023/11/08 09:01:53;;;;;;;3.70;3.50;;;;;;;13.11;nan;100068.88;5047140;27;97409;-89
2023/11/08 09:04:18;;;;;;;4.15;3.95;;;;;;;13.32;nan;100069.63;5029605;27;101606;-86
2023/11/08 09:06:44;;;;;;;3.55;3.35;;;;;;;13.33;nan;100037.09;5019815;27;101152;-86
2023/11/08 09:09:13;;;;;;;3.72;3.53;;;;;;;13.10;nan;100051.38;5030829;27;96795;-88
2023/11/08 09:11:40;;;;;;;3.25;3.15;;;;;;;13.31;nan;100050.34;5040048;27;97460;-86
2023/11/08 09:14:09;;;;;;;3.50;3.30;;;;;;;13.48;nan;100062.69;5039098;27;98160;-89
2023/11/08 09:16:35;;;;;;;20.88;4.70;;;;;;;13.55;nan;100040.34;5036671;27;97261;-87
2023/11/08 09:19:09;;;;;;;3.33;3.17;;;;;;;13.84;nan;100087.28;5026667;27;96779;-89
2023/11/08 09:21:35;;;;;;;3.50;3.30;;;;;;;13.82;nan;100072.38;5036173;27;96850;-89
2023/11/08 09:24:02;;;;;;;2.90;2.80;;;;;;;13.74;nan;100065.78;5034871;27;97551;-89
2023/11/08 09:26:28;;;;;;;2.90;2.80;;;;;;;14.10;nan;100070.09;5031877;27;97617;-89
2023/11/08 09:28:54;;;;;;;3.08;2.97;;;;;;;13.98;nan;100029.38;5031586;27;96771;-86
2023/11/08 09:31:20;;;;;;;2.90;2.80;;;;;;;14.32;nan;100065.38;5058727;27;96858;-85
2023/11/08 09:33:45;;;;;;;3.30;3.13;;;;;;;14.14;nan;100030.28;5033579;27;97486;-85
2023/11/08 09:36:12;;;;;;;2.95;2.85;;;;;;;14.13;nan;100038.25;5041651;27;97364;-85
2023/11/08 09:38:38;;;;;;;3.08;2.97;;;;;;;14.38;nan;100064.22;5039480;27;96801;-84
2023/11/08 09:41:03;;;;;;;3.20;3.10;;;;;;;14.46;nan;100043.53;5053346;27;97554;-84
2023/11/08 09:43:31;;;;;;;4.32;3.95;;;;;;;14.31;nan;100049.63;5018541;27;96923;-84
2023/11/08 09:45:57;;;;;;;2.75;2.65;;;;;;;14.35;nan;100038.81;5052561;27;97397;-84
2023/11/08 09:48:23;;;;;;;3.03;2.92;;;;;;;14.88;nan;100031.53;5033457;27;96801;-86
2023/11/08 09:50:49;;;;;;;4.80;4.32;;;;;;;15.69;nan;100049.81;5034961;27;97829;-87
2023/11/08 09:53:16;;;;;;;3.30;3.17;;;;;;;15.69;nan;100015.44;5029803;27;100356;-83
2023/11/08 09:55:41;;;;;;;4.10;3.90;;;;;;;15.94;nan;100051.81;5027835;27;100196;-87
2023/11/08 09:58:09;;;;;;;5.13;4.75;;;;;;;16.00;nan;100049.69;5034306;27;97102;-84
2023/11/08 10:00:35;;;;;;;5.95;5.55;;;;;;;16.00;nan;100044.38;5036258;27;97361;-84
2023/11/08 10:03:03;;;;;;;3.78;3.58;;;;;;;16.27;nan;100056.88;5035132;27;97644;-85
2023/11/08 10:05:30;;;;;;;4.43;4.22;;;;;;;15.75;nan;100044.16;5029181;27;98120;-85
2023/11/08 10:07:55;;;;;;;4.13;3.92;;;;;;;15.83;nan;100028.69;5035017;27;96719;-85
2023/11/08 10:10:21;;;;;;;10.18;4.05;;;;;;;16.22;nan;100006.00;5053926;27;97246;-86
2023/11/08 10:12:46;;;;;;;33.67;7.30;;;;;;;16.14;nan;100043.53;5067254;27;97521;-86
2023/11/08 10:15:21;;;;;;;3.92;3.72;;;;;;;15.82;nan;100033.13;5036089;27;97906;-86
2023/11/08 10:17:46;;;;;;;4.40;4.20;;;;;;;15.56;nan;100033.78;5035659;27;96823;-85
2023/11/08 10:20:18;;;;;;;3.60;3.40;;;;;;;15.48;nan;100023.66;5033569;27;97383;-85
2023/11/08 10:22:47;;;;;;;4.25;4.05;;;;;;;15.02;nan;100043.97;5052248;27;98488;-85
2023/11/08 10:25:13;;;;;;;3.85;3.65;;;;;;;14.91;nan;100047.22;5024215;27;101731;-85
2023/11/08 10:27:38;;;;;;;3.40;3.20;;;;;;;14.71;nan;100045.69;5034820;27;97450;-84
2023/11/08 10:30:19;;;;;;;2.00;1.90;;;;;;;14.71;nan;100035.97;5035607;27;97305;-86
2023/11/08 10:32:45;;;;;;;1.73;1.63;;;;;;;14.55;nan;100006.06;5035560;27;101144;-85
2023/11/08 10:35:12;;;;;;;1.40;1.40;;;;;;;14.64;nan;100046.97;5041975;27;97965;-86
2023/11/08 10:37:38;;;;;;;1.30;1.30;;;;;;;14.50;nan;100035.34;5055475;27;97299;-86
2023/11/08 10:40:04;;;;;;;1.23;1.23;;;;;;;14.28;nan;100011.03;5037231;27;96976;-85
2023/11/08 10:42:32;;;;;;;2.22;2.13;;;;;;;14.18;nan;100009.84;5036611;27;100032;-85
2023/11/08 10:45:08;;;;;;;1.23;1.23;;;;;;;14.21;nan;100010.50;5029560;27;97477;-86
2023/11/08 10:47:39;;;;;;;1.10;1.10;;;;;;;14.34;nan;100039.75;5023373;27;96755;-88
2023/11/08 10:50:18;;;;;;;1.10;1.10;;;;;;;14.38;nan;100038.66;5036617;27;96959;-75
2023/11/08 10:52:46;;;;;;;4.25;4.05;;;;;;;14.26;nan;99995.28;5028607;27;97565;-76
2023/11/08 10:55:12;;;;;;;1.20;1.20;;;;;;;14.33;nan;100006.34;5036375;27;97996;-74
2023/11/08 10:57:40;;;;;;;3.85;3.65;;;;;;;14.52;nan;100024.75;5036467;27;97629;-75
2023/11/08 11:00:09;;;;;;;3.60;3.40;;;;;;;14.70;nan;100021.06;5053724;27;98318;-75
2023/11/08 11:02:48;;;;;;;3.38;3.20;;;;;;;14.19;nan;99964.00;5034981;27;97392;-75
2023/11/08 11:05:17;;;;;;;13.90;3.88;;;;;;;14.47;nan;100001.16;5046611;27;97859;-75
2023/11/08 11:07:43;;;;;;;3.03;2.92;;;;;;;14.60;nan;100011.09;5035854;27;97299;-75
2023/11/08 11:10:10;;;;;;;3.50;3.30;;;;;;;14.70;nan;100017.56;5032650;27;97163;-76
2023/11/08 11:13:03;;;;;;;4.00;3.80;;;;;;;14.66;nan;100013.38;5044828;27;97961;-75
2023/11/08 11:16:15;;;;;;;2.58;2.47;;;;;;;14.52;nan;100019.44;5054323;27;97398;-76
2023/11/08 11:18:46;;;;;;;3.78;3.58;;;;;;;14.22;nan;99983.19;5001642;27;97017;-75
2023/11/08 11:21:24;;;;;;;3.28;3.17;;;;;;;14.42;nan;100031.41;5032639;27;97329;-75
2023/11/08 11:23:51;;;;;;;3.53;3.33;;;;;;;14.28;nan;100042.72;5032205;27;98079;-77
2023/11/08 11:26:51;;;;;;;3.67;3.47;;;;;;;14.19;nan;100041.41;5035868;27;97833;-77
2023/11/08 11:29:18;;;;;;;3.90;3.70;;;;;;;14.22;nan;100043.91;4956071;28;98014;-75
2023/11/08 11:31:44;;;;;;;3.88;3.67;;;;;;;13.93;nan;100007.63;5020927;27;97399;-76
2023/11/08 11:34:22;;;;;;;4.60;4.40;;;;;;;14.18;nan;100058.19;5031528;27;97504;-76
2023/11/08 11:37:10;;;;;;;4.68;4.47;;;;;;;14.15;nan;100063.63;5015612;27;99064;-77
2023/11/08 11:39:38;;;;;;;4.60;4.40;;;;;;;13.88;nan;100055.41;5031169;27;97232;-77
2023/11/08 11:42:14;;;;;;;4.45;4.25;;;;;;;13.98;nan;100066.31;5031979;27;97369;-76